Time;durP1;ratioP1;P1;durP2;ratioP2;P2;SDS_P1;SDS_P2;PMS_P1;PMS_P2;Temp;Humidity;BMP_temperature;BMP_pressure;BME280_temperature;BME280_humidity;BME280_pressure;Samples;Min_cycle;Max_cycle;Signal;HPM_P1;HPM_P2
2023/09/22 00:00:10;;;;;;;0.68;0.52;;;;;;;21.29;60.90;94003.91;5068963;28;20225;-83
2023/09/22 00:02:37;;;;;;;0.50;0.50;;;;;;;21.27;61.36;94020.97;5066583;28;20224;-84
2023/09/22 00:05:06;;;;;;;0.50;0.50;;;;;;;21.24;62.61;94073.88;5079436;28;20200;-84
2023/09/22 00:07:35;;;;;;;1.75;0.73;;;;;;;21.24;63.62;94116.53;5084774;28;20192;-84
2023/09/22 00:10:04;;;;;;;0.60;0.50;;;;;;;21.31;63.28;94095.25;5080071;28;20193;-84
2023/09/22 00:12:31;;;;;;;0.50;0.50;;;;;;;21.27;62.94;94097.66;5048275;28;20310;-84
2023/09/22 00:14:58;;;;;;;0.45;0.45;;;;;;;21.18;63.01;94091.44;5049691;28;20228;-84
2023/09/22 00:17:25;;;;;;;0.50;0.50;;;;;;;21.13;62.25;94069.78;5079218;28;20193;-84
2023/09/22 00:19:51;;;;;;;0.80;0.40;;;;;;;21.16;61.54;94043.06;5072238;28;20220;-84
2023/09/22 00:22:21;;;;;;;1.52;0.52;;;;;;;21.16;61.90;94064.78;5072286;28;20216;-85
2023/09/22 00:24:47;;;;;;;1.67;0.40;;;;;;;21.17;60.99;94034.13;5072333;28;20203;-84
2023/09/22 00:27:18;;;;;;;0.50;0.50;;;;;;;21.13;61.34;94036.53;5072354;28;20291;-84
2023/09/22 00:29:44;;;;;;;0.40;0.40;;;;;;;21.25;61.02;94030.94;5065751;28;20200;-84
2023/09/22 00:32:11;;;;;;;0.40;0.40;;;;;;;21.32;60.83;94005.97;5084721;28;20219;-84
2023/09/22 00:34:38;;;;;;;0.68;0.50;;;;;;;21.21;59.87;93970.50;5075224;28;20208;-84
2023/09/22 00:37:04;;;;;;;0.47;0.47;;;;;;;21.17;59.75;93956.38;5071920;28;20263;-84
2023/09/22 00:39:31;;;;;;;0.47;0.47;;;;;;;21.14;59.59;93958.81;5072740;28;20220;-84
2023/09/22 00:41:58;;;;;;;0.50;0.50;;;;;;;21.20;59.33;93949.84;5072192;28;20259;-84
2023/09/22 00:44:26;;;;;;;0.50;0.50;;;;;;;21.24;59.15;93935.13;5080059;28;20279;-84
2023/09/22 00:46:52;;;;;;;1.65;0.40;;;;;;;21.26;58.17;93901.59;5086426;28;20592;-84
2023/09/22 00:49:19;;;;;;;0.45;0.45;;;;;;;21.04;58.39;93889.03;5092095;28;20192;-84
2023/09/22 00:51:48;;;;;;;0.60;0.40;;;;;;;21.06;58.34;93886.94;5070360;28;20596;-85
2023/09/22 00:54:15;;;;;;;0.50;0.40;;;;;;;21.08;58.38;93899.72;5071792;28;20204;-84
2023/09/22 00:56:44;;;;;;;0.45;0.45;;;;;;;21.09;57.80;93872.50;5071940;28;20208;-84
2023/09/22 00:59:10;;;;;;;0.43;0.43;;;;;;;20.95;58.32;93880.28;5071416;28;20253;-84
2023/09/22 01:01:38;;;;;;;0.60;0.60;;;;;;;20.97;58.13;93889.38;5073044;28;20665;-84
2023/09/22 01:06:46;;;;;;;0.88;0.52;;;;;;;21.06;57.89;93875.69;5068628;28;20207;-84
2023/09/22 01:09:14;;;;;;;0.50;0.50;;;;;;;20.99;58.08;93881.25;5072093;28;20196;-83
2023/09/22 01:11:41;;;;;;;0.47;0.47;;;;;;;20.90;58.28;93909.13;5071437;28;20228;-84
2023/09/22 01:14:08;;;;;;;0.40;0.40;;;;;;;20.88;57.64;93892.94;5071428;28;20669;-84
2023/09/22 01:16:41;;;;;;;0.60;0.60;;;;;;;20.91;57.58;93892.38;5071817;28;20593;-84
2023/09/22 01:19:14;;;;;;;0.85;0.60;;;;;;;20.93;57.65;93882.41;5071297;28;20298;-84
2023/09/22 01:21:42;;;;;;;0.43;0.43;;;;;;;20.90;57.49;93886.38;5071602;28;20224;-84
2023/09/22 01:24:10;;;;;;;0.50;0.50;;;;;;;20.94;57.64;93889.19;5069748;28;20292;-84
2023/09/22 01:26:57;;;;;;;0.50;0.50;;;;;;;21.02;57.71;93893.78;5066716;28;20232;-84
2023/09/22 01:29:23;;;;;;;0.60;0.60;;;;;;;20.89;58.01;93878.78;5070928;28;20250;-84
2023/09/22 01:31:50;;;;;;;0.73;0.70;;;;;;;20.86;58.18;93880.13;5070897;28;20752;-84
2023/09/22 01:34:21;;;;;;;0.82;0.60;;;;;;;20.85;58.18;93877.78;5071151;28;20212;-84
2023/09/22 01:36:49;;;;;;;0.50;0.50;;;;;;;20.85;58.66;93888.25;5071083;28;20224;-84
2023/09/22 01:39:16;;;;;;;0.50;0.50;;;;;;;20.71;59.12;93895.25;5069952;28;20229;-84
2023/09/22 01:41:43;;;;;;;0.50;0.50;;;;;;;20.72;58.89;93917.72;5070854;28;20227;-84
2023/09/22 01:44:09;;;;;;;2.67;0.60;;;;;;;20.73;58.89;93932.38;5070679;28;20200;-84
2023/09/22 01:46:36;;;;;;;0.80;0.70;;;;;;;20.73;59.19;93951.44;5071181;28;20337;-84
2023/09/22 01:49:05;;;;;;;0.57;0.57;;;;;;;20.73;59.33;93967.16;5087867;28;20567;-84
2023/09/22 01:51:31;;;;;;;1.25;0.60;;;;;;;20.71;59.57;93966.63;5091096;28;20224;-84
2023/09/22 01:53:59;;;;;;;0.50;0.50;;;;;;;20.66;59.86;93988.38;5083763;28;20567;-84
2023/09/22 01:56:25;;;;;;;0.60;0.60;;;;;;;20.62;60.16;93992.63;5069435;28;20193;-84
2023/09/22 01:58:52;;;;;;;0.70;0.60;;;;;;;20.61;60.56;93993.66;5082860;28;20196;-84
2023/09/22 02:01:19;;;;;;;0.68;0.60;;;;;;;20.58;60.94;94009.16;5082280;28;20217;-84
2023/09/22 02:03:45;;;;;;;0.85;0.70;;;;;;;20.64;60.93;94000.19;5082845;28;20196;-85
2023/09/22 02:06:12;;;;;;;0.45;0.45;;;;;;;20.64;61.08;94010.66;5090508;28;20210;-84
2023/09/22 02:08:38;;;;;;;0.73;0.60;;;;;;;20.55;61.65;94030.63;5090290;28;20581;-84
2023/09/22 02:11:06;;;;;;;0.47;0.47;;;;;;;20.43;62.13;94040.66;5080903;28;20262;-83
2023/09/22 02:13:33;;;;;;;0.50;0.50;;;;;;;20.45;62.26;94062.06;5069993;28;20215;-84
2023/09/22 02:15:59;;;;;;;0.47;0.47;;;;;;;20.50;62.40;94078.50;5070639;28;20196;-84
2023/09/22 02:18:26;;;;;;;0.60;0.60;;;;;;;20.54;62.28;94076.91;5070514;28;20201;-84
2023/09/22 02:20:53;;;;;;;0.60;0.60;;;;;;;20.42;62.86;94096.59;5074847;28;20212;-84
2023/09/22 02:23:20;;;;;;;0.75;0.60;;;;;;;20.14;63.82;94124.25;5090481;28;20673;-84
2023/09/22 02:25:46;;;;;;;0.50;0.50;;;;;;;20.17;63.79;94126.31;5090682;28;20700;-84
2023/09/22 02:28:14;;;;;;;0.80;0.80;;;;;;;20.23;63.80;94138.28;5072151;28;20205;-84
2023/09/22 02:30:40;;;;;;;0.70;0.70;;;;;;;20.21;63.70;94132.53;5070100;28;20208;-84
2023/09/22 02:33:08;;;;;;;0.60;0.60;;;;;;;20.20;64.01;94129.16;5074091;28;20207;-84
2023/09/22 02:35:34;;;;;;;0.70;0.70;;;;;;;20.26;63.74;94125.44;5090396;28;20641;-84
2023/09/22 02:38:01;;;;;;;0.75;0.70;;;;;;;20.35;63.61;94120.44;5088849;28;20703;-84
2023/09/22 02:40:28;;;;;;;0.90;0.70;;;;;;;20.44;63.58;94103.13;5089587;28;20226;-84
2023/09/22 02:42:54;;;;;;;0.60;0.57;;;;;;;20.46;62.96;94092.41;5081091;28;20217;-84
2023/09/22 02:45:22;;;;;;;0.60;0.60;;;;;;;20.45;62.70;94085.59;5069305;28;20193;-84
2023/09/22 02:47:49;;;;;;;0.70;0.70;;;;;;;20.38;62.77;94083.31;5069787;28;20208;-84
2023/09/22 02:50:18;;;;;;;1.25;0.70;;;;;;;20.35;62.61;94087.22;5085809;28;20200;-84
2023/09/22 02:52:44;;;;;;;0.70;0.70;;;;;;;20.29;62.79;94096.16;5086291;28;20303;-84
2023/09/22 02:55:13;;;;;;;0.70;0.70;;;;;;;20.15;63.00;94115.34;5081558;28;20198;-84
2023/09/22 02:57:40;;;;;;;0.60;0.60;;;;;;;20.21;63.16;94125.47;5079529;28;20193;-84
2023/09/22 03:00:11;;;;;;;0.68;0.68;;;;;;;20.29;62.98;94118.91;5067871;28;20307;-84
2023/09/22 03:02:39;;;;;;;0.73;0.73;;;;;;;20.29;63.30;94131.97;5069706;28;20229;-84
2023/09/22 03:05:08;;;;;;;0.90;0.80;;;;;;;20.26;63.42;94135.91;5069591;28;20262;-84
2023/09/22 03:07:34;;;;;;;1.70;0.73;;;;;;;20.29;63.67;94150.28;5069440;28;20189;-84
2023/09/22 03:10:01;;;;;;;1.00;0.75;;;;;;;20.20;64.09;94176.22;5069839;28;20196;-85
2023/09/22 03:12:27;;;;;;;0.60;0.60;;;;;;;20.08;64.99;94190.63;5069305;28;20220;-84
2023/09/22 03:14:54;;;;;;;0.60;0.60;;;;;;;20.05;65.67;94212.06;5067631;28;20200;-84
2023/09/22 03:17:20;;;;;;;0.65;0.65;;;;;;;19.99;66.38;94224.41;5067378;28;20239;-84
2023/09/22 03:19:48;;;;;;;0.80;0.65;;;;;;;19.92;67.50;94250.81;5069255;28;20221;-83
2023/09/22 03:22:14;;;;;;;1.35;0.70;;;;;;;19.87;67.66;94252.66;5068979;28;20227;-84
2023/09/22 03:24:41;;;;;;;1.02;0.93;;;;;;;19.90;67.72;94263.34;5059892;28;20202;-84
2023/09/22 03:27:07;;;;;;;0.70;0.65;;;;;;;19.86;68.01;94277.19;5049283;28;20197;-84
2023/09/22 03:29:34;;;;;;;0.70;0.70;;;;;;;19.87;67.58;94263.09;5069766;28;20189;-84
2023/09/22 03:32:00;;;;;;;0.80;0.80;;;;;;;19.85;68.44;94305.16;5077006;28;20236;-84
2023/09/22 03:34:27;;;;;;;0.70;0.70;;;;;;;19.82;68.39;94307.53;5075415;28;20207;-83
2023/09/22 03:36:55;;;;;;;0.70;0.70;;;;;;;19.66;68.70;94317.22;5069047;28;20304;-84
2023/09/22 03:39:26;;;;;;;0.77;0.77;;;;;;;19.66;68.64;94304.94;5068965;28;20200;-84
2023/09/22 03:41:54;;;;;;;0.60;0.60;;;;;;;19.67;70.69;94358.72;5068990;28;20248;-84
2023/09/22 03:44:20;;;;;;;0.70;0.70;;;;;;;19.76;70.51;94350.38;5070148;28;20204;-84
2023/09/22 03:46:47;;;;;;;0.70;0.65;;;;;;;19.77;70.46;94354.56;5076370;28;20245;-84
2023/09/22 03:49:13;;;;;;;0.60;0.60;;;;;;;19.69;70.80;94370.75;5070610;28;20200;-83
2023/09/22 03:51:40;;;;;;;0.75;0.75;;;;;;;19.61;70.45;94375.47;5076408;28;20212;-84
2023/09/22 03:54:08;;;;;;;0.77;0.70;;;;;;;19.56;71.52;94412.00;5068875;28;20200;-84
2023/09/22 03:56:37;;;;;;;2.28;0.70;;;;;;;19.58;71.85;94411.75;5069313;28;20205;-83
2023/09/22 03:59:04;;;;;;;0.65;0.65;;;;;;;19.50;71.97;94420.09;5088956;28;20215;-84
2023/09/22 04:01:31;;;;;;;0.82;0.80;;;;;;;19.45;72.71;94435.72;5089203;28;20701;-83
2023/09/22 04:03:57;;;;;;;0.75;0.70;;;;;;;19.45;73.68;94467.03;5079834;28;20226;-83
2023/09/22 04:06:23;;;;;;;1.35;0.80;;;;;;;19.48;74.09;94476.97;5068855;28;20294;-84
2023/09/22 04:08:51;;;;;;;1.38;0.90;;;;;;;19.50;75.62;94514.88;5068547;28;20198;-84
2023/09/22 04:11:19;;;;;;;2.20;0.80;;;;;;;19.45;75.72;94499.16;5070813;28;20284;-83
2023/09/22 04:13:45;;;;;;;0.95;0.88;;;;;;;19.41;76.05;94507.78;5067681;28;20235;-84
2023/09/22 04:16:12;;;;;;;1.55;0.55;;;;;;;19.38;77.39;94542.22;5087881;28;20215;-84
2023/09/22 04:18:39;;;;;;;1.35;0.90;;;;;;;19.42;76.95;94527.63;5070126;28;20209;-83
2023/09/22 04:21:07;;;;;;;0.88;0.88;;;;;;;19.36;78.00;94552.91;5067822;28;20701;-83
2023/09/22 04:23:34;;;;;;;0.88;0.80;;;;;;;19.38;77.24;94543.00;5069546;28;20757;-84
2023/09/22 04:26:05;;;;;;;0.70;0.70;;;;;;;19.35;78.26;94561.78;5050010;28;20201;-83
2023/09/22 04:28:33;;;;;;;0.70;0.70;;;;;;;19.35;77.38;94548.75;5055335;28;20271;-83
2023/09/22 04:31:01;;;;;;;0.70;0.70;;;;;;;19.32;78.26;94570.13;5071108;28;20227;-83
2023/09/22 04:33:27;;;;;;;2.63;0.70;;;;;;;19.21;78.22;94566.72;5073436;28;20250;-82
2023/09/22 04:35:54;;;;;;;0.82;0.80;;;;;;;19.23;78.31;94585.50;5072449;28;20285;-84
2023/09/22 04:38:20;;;;;;;1.05;0.70;;;;;;;19.29;78.31;94586.28;5069386;28;20216;-86
2023/09/22 04:40:47;;;;;;;1.08;0.80;;;;;;;19.32;78.48;94591.78;5070934;28;20221;-84
2023/09/22 04:43:16;;;;;;;1.02;0.73;;;;;;;19.37;78.30;94600.69;5072492;28;20208;-86
2023/09/22 04:45:45;;;;;;;0.60;0.60;;;;;;;19.39;77.37;94569.91;5067235;28;20223;-84
2023/09/22 04:48:13;;;;;;;2.40;0.80;;;;;;;19.37;76.84;94559.72;5076800;28;20196;-85
2023/09/22 04:50:39;;;;;;;1.13;0.70;;;;;;;19.33;78.54;94601.19;5068004;28;20341;-84
2023/09/22 04:53:07;;;;;;;1.25;0.85;;;;;;;19.21;77.42;94579.75;5068185;28;20223;-84
2023/09/22 04:55:35;;;;;;;1.02;0.75;;;;;;;19.16;77.50;94579.72;5070330;28;20205;-84
2023/09/22 04:58:03;;;;;;;0.70;0.70;;;;;;;19.00;79.58;94627.66;5073965;28;20251;-84
2023/09/22 05:00:33;;;;;;;1.27;0.90;;;;;;;18.98;78.21;94595.81;5071994;28;20220;-84
2023/09/22 05:03:01;;;;;;;1.05;0.80;;;;;;;19.02;79.21;94628.19;5073868;28;20216;-84
2023/09/22 05:05:28;;;;;;;0.75;0.75;;;;;;;19.05;78.61;94617.22;5073264;28;20247;-84
2023/09/22 05:07:55;;;;;;;1.85;0.80;;;;;;;18.98;78.37;94614.84;5072037;28;20217;-84
2023/09/22 05:10:22;;;;;;;1.20;0.80;;;;;;;18.97;78.62;94622.94;5074053;28;20204;-85
2023/09/22 05:12:50;;;;;;;0.88;0.88;;;;;;;18.95;79.64;94651.88;5074749;28;20908;-85
2023/09/22 05:15:16;;;;;;;1.70;0.85;;;;;;;18.92;79.48;94657.59;5074636;28;20211;-85
2023/09/22 05:17:42;;;;;;;1.48;1.20;;;;;;;18.95;80.36;94675.34;5072822;28;20197;-84
2023/09/22 05:20:14;;;;;;;2.20;1.42;;;;;;;18.87;80.69;94688.06;5074704;28;20612;-85
2023/09/22 05:22:41;;;;;;;0.98;0.80;;;;;;;18.88;79.95;94666.16;5073653;28;20776;-84
2023/09/22 05:25:12;;;;;;;1.55;1.10;;;;;;;18.88;79.38;94663.56;5071112;28;20208;-85
2023/09/22 05:27:40;;;;;;;1.10;0.90;;;;;;;18.84;79.43;94663.28;5078427;28;20192;-84
2023/09/22 05:30:08;;;;;;;0.80;0.80;;;;;;;18.77;79.74;94672.34;5079248;28;20203;-84
2023/09/22 05:32:35;;;;;;;2.63;1.10;;;;;;;18.77;79.85;94680.19;5076630;28;20307;-84
2023/09/22 05:35:01;;;;;;;1.02;0.85;;;;;;;18.70;80.64;94692.63;5071853;28;20204;-84
2023/09/22 05:37:31;;;;;;;2.10;1.20;;;;;;;18.73;80.78;94713.00;5071732;28;20240;-84
2023/09/22 05:39:58;;;;;;;1.52;0.88;;;;;;;18.72;81.49;94729.66;5070134;28;20204;-85
2023/09/22 05:42:24;;;;;;;1.35;1.10;;;;;;;18.72;80.91;94722.63;5073072;28;20212;-85
2023/09/22 05:44:51;;;;;;;1.02;0.80;;;;;;;18.69;81.01;94727.56;5078853;28;20189;-85
2023/09/22 05:47:18;;;;;;;1.00;0.80;;;;;;;18.70;81.57;94736.94;5076747;28;20184;-85
2023/09/22 05:49:44;;;;;;;2.08;1.42;;;;;;;18.61;82.22;94741.84;5087200;28;20208;-85
2023/09/22 05:52:11;;;;;;;2.65;1.10;;;;;;;18.68;81.82;94739.03;5069800;28;20220;-85
2023/09/22 05:54:39;;;;;;;5.60;4.63;;;;;;;18.68;82.58;94752.84;5069907;28;20665;-85
2023/09/22 05:57:06;;;;;;;5.78;4.65;;;;;;;18.68;83.58;94780.75;5068872;28;20651;-85
2023/09/22 05:59:33;;;;;;;3.22;2.92;;;;;;;18.70;82.67;94769.03;5070165;28;20241;-85
2023/09/22 06:02:00;;;;;;;2.80;1.42;;;;;;;18.65;82.41;94763.78;5069909;28;20350;-86
2023/09/22 06:04:29;;;;;;;1.70;1.60;;;;;;;18.59;82.61;94767.38;5067240;28;20251;-85
2023/09/22 06:06:59;;;;;;;2.08;1.50;;;;;;;18.57;82.71;94764.19;5070865;28;20219;-85
2023/09/22 06:09:28;;;;;;;1.33;0.98;;;;;;;18.51;81.68;94749.53;5071196;28;20608;-86
2023/09/22 06:11:56;;;;;;;1.05;0.90;;;;;;;18.40;83.40;94777.31;5070481;28;20818;-86
2023/09/22 06:14:23;;;;;;;1.10;1.00;;;;;;;18.39;82.86;94774.97;5067074;28;20688;-85
2023/09/22 06:16:50;;;;;;;1.08;0.98;;;;;;;18.36;83.60;94793.69;5067318;28;20277;-86
2023/09/22 06:19:16;;;;;;;1.88;1.13;;;;;;;18.37;84.33;94805.69;5072826;28;20198;-86
2023/09/22 06:21:43;;;;;;;1.77;1.00;;;;;;;18.30;82.21;94762.34;5069496;28;20213;-85
2023/09/22 06:24:10;;;;;;;1.08;0.98;;;;;;;18.33;82.83;94778.53;5067092;28;20206;-86
2023/09/22 06:26:36;;;;;;;3.15;1.38;;;;;;;18.33;82.25;94768.91;5071556;28;20196;-86
2023/09/22 06:29:06;;;;;;;3.50;2.88;;;;;;;18.36;82.85;94780.66;5068033;28;20209;-85
2023/09/22 06:31:36;;;;;;;3.45;2.13;;;;;;;18.37;83.59;94803.88;5077384;28;20295;-86
2023/09/22 06:34:03;;;;;;;2.88;1.10;;;;;;;18.46;82.21;94778.97;5089556;28;20208;-85
2023/09/22 06:36:30;;;;;;;1.83;1.02;;;;;;;18.45;82.23;94776.59;5072881;28;20205;-86
2023/09/22 06:39:08;;;;;;;1.60;1.02;;;;;;;18.42;83.01;94792.72;5071941;28;20286;-85
2023/09/22 06:41:38;;;;;;;2.47;1.20;;;;;;;18.36;81.96;94778.03;5074591;28;20220;-86
2023/09/22 06:44:06;;;;;;;1.15;1.00;;;;;;;18.40;81.35;94753.88;5082249;28;20196;-85
2023/09/22 06:46:36;;;;;;;4.25;3.60;;;;;;;18.43;81.70;94761.19;5074229;28;20207;-85
2023/09/22 06:49:07;;;;;;;5.07;4.57;;;;;;;18.42;81.28;94754.41;5069813;28;20658;-86
2023/09/22 06:51:36;;;;;;;1.58;1.27;;;;;;;18.35;81.26;94764.22;5070031;28;20263;-86
2023/09/22 06:54:03;;;;;;;1.35;1.25;;;;;;;18.37;80.89;94756.16;5069787;28;20617;-86
2023/09/22 06:56:30;;;;;;;1.50;1.40;;;;;;;18.36;81.60;94775.44;5069204;28;20670;-87
2023/09/22 06:58:56;;;;;;;1.77;1.27;;;;;;;18.35;81.57;94766.84;5069751;28;20201;-86
2023/09/22 07:01:24;;;;;;;1.67;1.15;;;;;;;18.39;82.54;94794.00;5069334;28;20231;-85
2023/09/22 07:03:51;;;;;;;1.63;1.13;;;;;;;18.38;82.19;94791.63;5069373;28;20201;-86
2023/09/22 07:06:19;;;;;;;1.85;1.00;;;;;;;18.41;81.87;94793.75;5084108;28;20200;-85
2023/09/22 07:08:48;;;;;;;1.50;1.02;;;;;;;18.36;82.03;94791.06;5090023;28;20291;-86
2023/09/22 07:11:20;;;;;;;1.10;0.90;;;;;;;18.42;83.13;94818.78;5089559;28;20223;-86
2023/09/22 07:13:46;;;;;;;1.23;1.00;;;;;;;18.35;82.47;94803.31;5089623;28;20220;-86
2023/09/22 07:16:13;;;;;;;1.60;1.02;;;;;;;18.35;83.25;94813.75;5081487;28;20205;-86
2023/09/22 07:18:40;;;;;;;1.17;1.08;;;;;;;18.37;81.89;94790.03;5069116;28;20205;-86
2023/09/22 07:21:08;;;;;;;4.63;1.10;;;;;;;18.36;82.28;94793.69;5060498;28;20225;-85
2023/09/22 07:23:35;;;;;;;1.20;1.10;;;;;;;18.26;82.68;94802.97;5060542;28;20223;-86
2023/09/22 07:26:02;;;;;;;1.35;0.85;;;;;;;18.26;84.04;94826.44;5069157;28;20209;-85
2023/09/22 07:28:29;;;;;;;1.30;0.90;;;;;;;18.28;82.22;94800.88;5085709;28;20232;-86
2023/09/22 07:30:57;;;;;;;1.20;1.10;;;;;;;18.22;81.55;94780.25;5089102;28;20200;-85
2023/09/22 07:33:29;;;;;;;21.75;19.50;;;;;;;18.19;82.74;94809.38;5072523;28;20669;-86
2023/09/22 07:35:58;;;;;;;7.85;7.07;;;;;;;18.17;83.63;94832.28;5077711;28;20277;-85
2023/09/22 07:38:26;;;;;;;2.60;1.92;;;;;;;18.10;84.83;94849.91;5083392;28;20197;-86
2023/09/22 07:40:55;;;;;;;1.40;1.30;;;;;;;18.17;84.88;94853.13;5088611;28;20196;-85
2023/09/22 07:43:28;;;;;;;2.53;1.40;;;;;;;18.19;84.37;94843.25;5077510;28;20330;-87
2023/09/22 07:45:55;;;;;;;1.65;0.93;;;;;;;18.19;84.77;94858.91;5068536;28;20242;-85
2023/09/22 07:48:21;;;;;;;1.30;1.20;;;;;;;18.23;83.66;94836.53;5067400;28;20196;-86
2023/09/22 07:50:48;;;;;;;0.95;0.82;;;;;;;18.22;82.33;94807.09;5068435;28;20209;-85
2023/09/22 07:53:16;;;;;;;3.88;0.95;;;;;;;18.19;82.44;94817.22;5083632;28;20188;-85
2023/09/22 07:55:42;;;;;;;1.17;0.93;;;;;;;18.25;82.09;94830.06;5075639;28;20199;-85
2023/09/22 07:58:10;;;;;;;0.95;0.85;;;;;;;18.23;81.74;94821.69;5071728;28;20196;-86
2023/09/22 08:00:42;;;;;;;0.85;0.85;;;;;;;18.30;81.39;94822.28;5073950;28;20247;-85
2023/09/22 08:03:09;;;;;;;1.20;0.93;;;;;;;18.32;80.97;94806.41;5061285;28;20270;-85
2023/09/22 08:05:36;;;;;;;1.58;1.02;;;;;;;18.28;81.39;94815.75;5066570;28;20201;-86
2023/09/22 08:08:05;;;;;;;1.75;0.80;;;;;;;18.27;81.52;94814.19;5068340;28;20208;-86
2023/09/22 08:10:33;;;;;;;2.10;1.10;;;;;;;18.21;81.72;94808.13;5080189;28;20206;-85
2023/09/22 08:12:59;;;;;;;1.20;1.10;;;;;;;18.24;82.12;94823.28;5069970;28;20233;-86
2023/09/22 08:15:26;;;;;;;1.17;0.90;;;;;;;18.30;81.70;94811.06;5061748;28;20311;-86
2023/09/22 08:17:56;;;;;;;1.33;1.20;;;;;;;18.31;83.50;94833.50;5068211;28;20209;-86
2023/09/22 08:20:22;;;;;;;1.17;0.90;;;;;;;18.32;83.67;94842.09;5066771;28;20271;-86
2023/09/22 08:22:51;;;;;;;12.15;10.95;;;;;;;18.37;82.25;94808.28;5067970;28;20232;-85
2023/09/22 08:25:19;;;;;;;3.63;3.05;;;;;;;18.42;81.91;94808.34;5066497;28;20649;-86
2023/09/22 08:27:52;;;;;;;1.40;1.30;;;;;;;18.44;81.62;94801.09;5072903;28;20200;-85
2023/09/22 08:30:19;;;;;;;0.98;0.88;;;;;;;18.40;81.10;94803.38;5081087;28;20197;-86
2023/09/22 08:32:46;;;;;;;2.05;1.10;;;;;;;18.38;81.57;94817.69;5075973;28;20222;-85
2023/09/22 08:35:15;;;;;;;1.58;1.00;;;;;;;18.38;81.52;94820.28;5076596;28;20201;-86
2023/09/22 08:37:42;;;;;;;1.00;0.90;;;;;;;18.28;82.73;94836.59;5069393;28;20259;-84
2023/09/22 08:40:11;;;;;;;2.17;1.10;;;;;;;18.61;83.95;94878.22;5076864;28;20282;-89
2023/09/22 08:42:38;;;;;;;2.75;1.10;;;;;;;18.59;82.40;94845.59;5080435;28;20285;-85
2023/09/22 08:45:07;;;;;;;1.00;1.00;;;;;;;18.58;82.41;94854.41;5070912;28;20654;-85
2023/09/22 08:47:39;;;;;;;0.73;0.73;;;;;;;18.57;82.25;94845.03;5070254;28;20669;-85
2023/09/22 08:50:10;;;;;;;1.20;1.10;;;;;;;18.54;81.89;94840.28;5071094;28;20209;-84
2023/09/22 08:52:38;;;;;;;2.03;0.98;;;;;;;18.54;83.02;94882.78;5069903;28;20209;-84
2023/09/22 08:55:08;;;;;;;1.92;1.05;;;;;;;18.49;82.57;94871.50;5076673;28;20263;-84
2023/09/22 08:57:35;;;;;;;1.17;1.08;;;;;;;18.39;83.31;94892.25;5070914;28;20200;-85
2023/09/22 09:00:03;;;;;;;1.15;0.82;;;;;;;18.32;84.42;94920.28;5071451;28;20274;-85
2023/09/22 09:02:31;;;;;;;1.77;0.90;;;;;;;18.27;84.84;94918.44;5070972;28;20220;-84
2023/09/22 09:04:59;;;;;;;1.50;1.10;;;;;;;18.15;85.80;94941.97;5071017;28;20209;-84
2023/09/22 09:07:26;;;;;;;1.27;0.90;;;;;;;18.13;85.81;94938.81;5071139;28;20201;-84
2023/09/22 09:09:55;;;;;;;2.92;1.13;;;;;;;18.10;86.72;94947.09;5068870;28;20211;-84
2023/09/22 09:12:22;;;;;;;1.92;1.77;;;;;;;18.20;87.66;94962.88;5071331;28;20221;-84
2023/09/22 09:14:49;;;;;;;12.10;10.82;;;;;;;18.24;87.69;94960.59;5071420;28;20196;-84
2023/09/22 09:17:20;;;;;;;2.38;2.17;;;;;;;18.21;87.03;94940.22;5070464;28;20197;-84
2023/09/22 09:19:49;;;;;;;2.20;1.35;;;;;;;18.24;87.78;94963.22;5071167;28;20224;-85
2023/09/22 09:22:16;;;;;;;0.70;0.70;;;;;;;18.10;83.15;94884.56;5070917;28;20335;-84
2023/09/22 09:24:43;;;;;;;0.90;0.90;;;;;;;18.02;81.38;94834.72;5067959;28;20189;-85
2023/09/22 09:27:21;;;;;;;1.20;1.02;;;;;;;18.06;82.91;94865.25;5072413;28;20227;-85
2023/09/22 09:29:50;;;;;;;0.90;0.80;;;;;;;18.03;81.60;94846.72;5089002;28;20717;-83
2023/09/22 09:32:24;;;;;;;1.35;0.82;;;;;;;18.02;82.47;94856.34;5075532;28;20251;-84
2023/09/22 09:34:54;;;;;;;1.50;0.95;;;;;;;18.03;80.60;94815.44;5068118;28;20251;-85
2023/09/22 09:37:21;;;;;;;0.88;0.80;;;;;;;18.04;82.20;94837.88;5067477;28;20224;-84
2023/09/22 09:39:49;;;;;;;0.93;0.93;;;;;;;18.12;82.23;94843.44;5069695;28;20204;-83
2023/09/22 09:42:25;;;;;;;3.33;2.90;;;;;;;18.17;84.37;94892.22;5068557;28;20228;-84
2023/09/22 09:44:53;;;;;;;2.40;1.20;;;;;;;18.16;81.62;94834.09;5071338;28;20211;-85
2023/09/22 09:47:24;;;;;;;0.90;0.80;;;;;;;18.13;80.93;94823.38;5080141;28;20206;-85
2023/09/22 09:49:56;;;;;;;3.40;1.00;;;;;;;17.97;80.49;94809.38;5077836;28;20201;-85
2023/09/22 09:52:28;;;;;;;1.15;0.93;;;;;;;18.00;81.44;94837.56;5070247;28;20213;-85
2023/09/22 09:55:08;;;;;;;1.02;0.93;;;;;;;18.05;81.30;94842.03;5060550;28;20219;-85
2023/09/22 09:57:43;;;;;;;1.20;1.10;;;;;;;17.97;81.59;94852.88;5070253;28;20189;-87
2023/09/22 10:00:13;;;;;;;8.55;7.72;;;;;;;17.93;83.65;94894.22;5070823;28;20257;-85
2023/09/22 10:02:44;;;;;;;7.18;6.47;;;;;;;17.89;83.15;94890.53;5074372;28;20797;-85
2023/09/22 10:05:15;;;;;;;1.58;1.10;;;;;;;17.94;82.55;94893.19;5068758;28;20189;-85
2023/09/22 10:07:43;;;;;;;1.58;1.00;;;;;;;17.83;84.14;94920.94;5068741;28;20658;-84
2023/09/22 10:10:11;;;;;;;1.20;1.00;;;;;;;17.83;83.87;94917.53;5067168;28;20250;-84
2023/09/22 10:12:47;;;;;;;1.50;1.08;;;;;;;17.81;84.78;94930.78;5069248;28;20215;-87
2023/09/22 10:15:15;;;;;;;1.25;1.10;;;;;;;17.78;84.67;94928.66;5065856;28;20313;-85
2023/09/22 10:17:56;;;;;;;3.15;0.90;;;;;;;17.70;84.39;94921.25;5065621;28;20197;-87
2023/09/22 10:20:44;;;;;;;1.88;1.20;;;;;;;17.78;85.49;94961.72;5077468;28;20255;-84
2023/09/22 10:23:22;;;;;;;1.60;1.30;;;;;;;17.74;84.76;94937.97;5086985;28;20224;-85
2023/09/22 10:26:28;;;;;;;1.45;1.10;;;;;;;17.80;85.36;94944.03;5074460;28;20287;-84
2023/09/22 10:28:55;;;;;;;0.93;0.88;;;;;;;17.71;84.79;94922.81;5018783;28;20210;-84
2023/09/22 10:31:24;;;;;;;1.65;1.00;;;;;;;17.79;85.80;94945.84;5025134;28;20467;-85
2023/09/22 10:33:50;;;;;;;4.20;1.00;;;;;;;17.85;85.21;94941.53;5053183;28;20611;-84
2023/09/22 10:36:50;;;;;;;1.70;1.00;;;;;;;17.88;86.19;94947.06;5091313;28;20200;-84
2023/09/22 10:39:19;;;;;;;3.30;0.93;;;;;;;17.75;84.03;94912.72;5090462;28;20192;-83
2023/09/22 10:42:00;;;;;;;0.80;0.80;;;;;;;17.73;82.82;94889.50;5092171;28;20219;-84
2023/09/22 10:44:26;;;;;;;1.10;0.80;;;;;;;17.74;84.28;94930.16;5091020;28;20196;-84
2023/09/22 10:46:56;;;;;;;1.75;1.10;;;;;;;17.82;83.98;94921.16;5070977;28;20223;-84
2023/09/22 10:49:28;;;;;;;1.40;0.90;;;;;;;17.83;83.65;94925.34;5072555;28;20624;-86
2023/09/22 10:51:57;;;;;;;1.38;0.88;;;;;;;17.70;82.42;94895.22;5069806;28;20221;-87
2023/09/22 10:54:23;;;;;;;1.90;0.90;;;;;;;17.66;82.50;94896.72;5070113;28;20674;-86
2023/09/22 10:56:50;;;;;;;1.30;1.00;;;;;;;17.63;83.07;94901.56;5070230;28;20700;-87
2023/09/22 10:59:16;;;;;;;1.27;0.95;;;;;;;17.54;83.47;94906.34;5070555;28;20577;-85
2023/09/22 11:01:45;;;;;;;1.20;0.80;;;;;;;17.55;83.42;94910.53;5069453;28;20225;-85
2023/09/22 11:04:12;;;;;;;13.90;12.55;;;;;;;17.60;84.15;94923.66;5072336;28;20208;-83
2023/09/22 11:06:43;;;;;;;4.15;3.00;;;;;;;17.70;85.22;94943.91;5072079;28;20789;-83
2023/09/22 11:09:11;;;;;;;2.92;0.98;;;;;;;17.79;83.96;94917.22;5071396;28;20197;-84
2023/09/22 11:11:37;;;;;;;2.85;1.10;;;;;;;17.80;84.85;94931.03;5070846;28;20426;-84
2023/09/22 11:14:04;;;;;;;0.75;0.70;;;;;;;17.82;84.80;94931.56;5076134;28;20197;-84
2023/09/22 11:16:30;;;;;;;1.48;0.90;;;;;;;17.75;85.07;94929.13;5071497;28;20200;-84
2023/09/22 11:19:04;;;;;;;1.67;1.10;;;;;;;17.73;86.18;94954.59;5069849;28;20197;-84
2023/09/22 11:21:38;;;;;;;1.15;1.00;;;;;;;17.74;85.88;94950.97;5084956;28;20216;-84
2023/09/22 11:24:08;;;;;;;1.00;0.90;;;;;;;17.76;84.42;94930.69;5085041;28;20307;-84
2023/09/22 11:26:42;;;;;;;1.38;1.23;;;;;;;17.68;84.30;94933.72;5070237;28;20200;-84
2023/09/22 11:29:09;;;;;;;1.08;0.90;;;;;;;17.60;84.27;94926.25;5084611;28;20200;-85
2023/09/22 11:31:35;;;;;;;0.80;0.80;;;;;;;17.57;84.83;94940.53;5089252;28;20247;-84
2023/09/22 11:34:04;;;;;;;0.77;0.77;;;;;;;17.61;86.29;94956.47;5084125;28;20300;-84
2023/09/22 11:36:45;;;;;;;0.90;0.90;;;;;;;17.64;85.90;94950.81;5069096;28;20723;-84
2023/09/22 11:39:24;;;;;;;0.80;0.80;;;;;;;17.60;84.95;94942.66;5068679;28;20284;-84
2023/09/22 11:41:52;;;;;;;16.77;15.07;;;;;;;17.63;85.12;94938.00;5069879;28;20212;-84